sensor_id;sensor_type;location;lat;lon;timestamp;P1;durP1;ratioP1;P2;durP2;ratioP2
41568;SDS011;27283;52.504;13.358;2023-07-29T00:00:19;21.45;;;12.73;;
41568;SDS011;27283;52.504;13.358;2023-07-29T00:03:11;23.30;;;13.10;;
41568;SDS011;27283;52.504;13.358;2023-07-29T00:05:47;22.95;;;12.50;;
41568;SDS011;27283;52.504;13.358;2023-07-29T00:08:21;19.58;;;12.57;;
41568;SDS011;27283;52.504;13.358;2023-07-29T00:10:56;22.80;;;14.15;;
41568;SDS011;27283;52.504;13.358;2023-07-29T00:13:28;23.88;;;13.80;;
41568;SDS011;27283;52.504;13.358;2023-07-29T00:16:03;25.50;;;14.23;;
41568;SDS011;27283;52.504;13.358;2023-07-29T00:18:40;27.77;;;15.00;;
41568;SDS011;27283;52.504;13.358;2023-07-29T00:21:16;24.20;;;14.88;;
41568;SDS011;27283;52.504;13.358;2023-07-29T00:23:48;31.90;;;15.48;;
41568;SDS011;27283;52.504;13.358;2023-07-29T00:26:22;24.55;;;14.57;;
41568;SDS011;27283;52.504;13.358;2023-07-29T00:28:57;28.02;;;14.82;;
41568;SDS011;27283;52.504;13.358;2023-07-29T00:31:30;25.90;;;14.82;;
41568;SDS011;27283;52.504;13.358;2023-07-29T00:34:02;24.00;;;15.15;;
41568;SDS011;27283;52.504;13.358;2023-07-29T00:36:34;25.08;;;14.50;;
41568;SDS011;27283;52.504;13.358;2023-07-29T00:39:06;23.90;;;14.57;;
41568;SDS011;27283;52.504;13.358;2023-07-29T00:41:41;24.73;;;15.13;;
41568;SDS011;27283;52.504;13.358;2023-07-29T00:44:13;30.90;;;15.80;;
41568;SDS011;27283;52.504;13.358;2023-07-29T00:46:45;24.85;;;14.20;;
41568;SDS011;27283;52.504;13.358;2023-07-29T00:49:18;31.25;;;16.13;;
41568;SDS011;27283;52.504;13.358;2023-07-29T00:51:51;34.10;;;17.38;;
41568;SDS011;27283;52.504;13.358;2023-07-29T00:54:23;28.40;;;16.38;;
41568;SDS011;27283;52.504;13.358;2023-07-29T00:56:57;29.15;;;15.63;;
41568;SDS011;27283;52.504;13.358;2023-07-29T00:59:30;29.27;;;16.00;;
41568;SDS011;27283;52.504;13.358;2023-07-29T01:02:03;28.90;;;16.33;;
41568;SDS011;27283;52.504;13.358;2023-07-29T01:04:37;33.72;;;17.20;;
41568;SDS011;27283;52.504;13.358;2023-07-29T01:07:11;28.13;;;15.05;;
41568;SDS011;27283;52.504;13.358;2023-07-29T01:09:55;25.25;;;15.38;;
41568;SDS011;27283;52.504;13.358;2023-07-29T01:12:37;28.83;;;15.98;;
41568;SDS011;27283;52.504;13.358;2023-07-29T01:15:19;27.25;;;15.95;;
41568;SDS011;27283;52.504;13.358;2023-07-29T01:18:02;26.60;;;15.23;;
41568;SDS011;27283;52.504;13.358;2023-07-29T01:20:42;28.20;;;16.05;;
41568;SDS011;27283;52.504;13.358;2023-07-29T01:23:26;27.45;;;15.63;;
41568;SDS011;27283;52.504;13.358;2023-07-29T01:26:01;27.83;;;15.30;;
41568;SDS011;27283;52.504;13.358;2023-07-29T01:28:34;27.05;;;14.88;;
41568;SDS011;27283;52.504;13.358;2023-07-29T01:31:08;27.90;;;15.88;;
41568;SDS011;27283;52.504;13.358;2023-07-29T01:33:52;26.58;;;15.52;;
41568;SDS011;27283;52.504;13.358;2023-07-29T01:36:30;27.02;;;14.40;;
41568;SDS011;27283;52.504;13.358;2023-07-29T01:39:10;29.50;;;16.08;;
41568;SDS011;27283;52.504;13.358;2023-07-29T01:41:43;26.30;;;15.50;;
41568;SDS011;27283;52.504;13.358;2023-07-29T01:44:17;26.67;;;14.88;;
41568;SDS011;27283;52.504;13.358;2023-07-29T01:46:51;26.17;;;14.43;;
41568;SDS011;27283;52.504;13.358;2023-07-29T01:49:23;26.35;;;14.77;;
41568;SDS011;27283;52.504;13.358;2023-07-29T01:51:55;28.52;;;15.10;;
41568;SDS011;27283;52.504;13.358;2023-07-29T01:54:31;27.17;;;14.38;;
41568;SDS011;27283;52.504;13.358;2023-07-29T01:57:03;26.83;;;14.40;;
41568;SDS011;27283;52.504;13.358;2023-07-29T01:59:36;27.40;;;15.05;;
41568;SDS011;27283;52.504;13.358;2023-07-29T02:02:09;24.55;;;14.45;;
41568;SDS011;27283;52.504;13.358;2023-07-29T02:04:41;26.48;;;15.00;;
41568;SDS011;27283;52.504;13.358;2023-07-29T02:07:13;26.77;;;14.38;;
41568;SDS011;27283;52.504;13.358;2023-07-29T02:09:50;31.30;;;15.18;;
41568;SDS011;27283;52.504;13.358;2023-07-29T02:12:22;34.05;;;16.30;;
41568;SDS011;27283;52.504;13.358;2023-07-29T02:14:55;29.55;;;15.43;;
41568;SDS011;27283;52.504;13.358;2023-07-29T02:17:27;23.15;;;14.05;;
41568;SDS011;27283;52.504;13.358;2023-07-29T02:20:00;26.73;;;15.23;;
41568;SDS011;27283;52.504;13.358;2023-07-29T02:22:36;32.42;;;16.33;;
41568;SDS011;27283;52.504;13.358;2023-07-29T02:25:11;24.08;;;14.73;;
41568;SDS011;27283;52.504;13.358;2023-07-29T02:27:44;30.83;;;16.42;;
41568;SDS011;27283;52.504;13.358;2023-07-29T02:30:17;28.75;;;15.93;;
41568;SDS011;27283;52.504;13.358;2023-07-29T02:32:49;30.63;;;16.50;;
41568;SDS011;27283;52.504;13.358;2023-07-29T02:35:22;31.42;;;14.75;;
41568;SDS011;27283;52.504;13.358;2023-07-29T02:37:54;29.67;;;16.95;;
41568;SDS011;27283;52.504;13.358;2023-07-29T02:40:34;30.83;;;16.35;;
41568;SDS011;27283;52.504;13.358;2023-07-29T02:43:06;28.98;;;16.92;;
41568;SDS011;27283;52.504;13.358;2023-07-29T02:45:39;29.23;;;17.08;;
41568;SDS011;27283;52.504;13.358;2023-07-29T02:48:16;33.60;;;16.77;;
41568;SDS011;27283;52.504;13.358;2023-07-29T02:50:51;32.55;;;17.88;;
41568;SDS011;27283;52.504;13.358;2023-07-29T02:53:27;35.92;;;18.02;;
41568;SDS011;27283;52.504;13.358;2023-07-29T02:56:02;31.25;;;17.63;;
41568;SDS011;27283;52.504;13.358;2023-07-29T02:58:41;32.75;;;17.40;;
41568;SDS011;27283;52.504;13.358;2023-07-29T03:01:17;28.85;;;16.45;;
41568;SDS011;27283;52.504;13.358;2023-07-29T03:03:50;30.40;;;17.20;;
41568;SDS011;27283;52.504;13.358;2023-07-29T03:06:28;31.88;;;17.83;;
41568;SDS011;27283;52.504;13.358;2023-07-29T03:09:01;27.48;;;16.02;;
41568;SDS011;27283;52.504;13.358;2023-07-29T03:11:36;27.20;;;15.55;;
41568;SDS011;27283;52.504;13.358;2023-07-29T03:14:08;30.88;;;16.65;;
41568;SDS011;27283;52.504;13.358;2023-07-29T03:16:41;25.90;;;15.90;;
41568;SDS011;27283;52.504;13.358;2023-07-29T03:19:14;29.40;;;16.25;;
41568;SDS011;27283;52.504;13.358;2023-07-29T03:21:47;26.48;;;15.82;;
41568;SDS011;27283;52.504;13.358;2023-07-29T03:24:19;29.73;;;17.00;;
41568;SDS011;27283;52.504;13.358;2023-07-29T03:26:56;26.27;;;15.82;;
41568;SDS011;27283;52.504;13.358;2023-07-29T03:29:32;26.90;;;15.77;;
41568;SDS011;27283;52.504;13.358;2023-07-29T03:32:04;26.23;;;15.60;;
41568;SDS011;27283;52.504;13.358;2023-07-29T03:34:37;25.63;;;15.07;;
41568;SDS011;27283;52.504;13.358;2023-07-29T03:37:10;23.92;;;14.50;;
41568;SDS011;27283;52.504;13.358;2023-07-29T03:39:42;27.92;;;14.73;;
41568;SDS011;27283;52.504;13.358;2023-07-29T03:42:17;25.92;;;15.00;;
41568;SDS011;27283;52.504;13.358;2023-07-29T03:44:49;23.73;;;14.48;;
41568;SDS011;27283;52.504;13.358;2023-07-29T03:47:22;25.35;;;14.63;;
41568;SDS011;27283;52.504;13.358;2023-07-29T03:49:54;25.15;;;14.55;;
41568;SDS011;27283;52.504;13.358;2023-07-29T03:52:29;22.73;;;13.75;;
41568;SDS011;27283;52.504;13.358;2023-07-29T03:55:02;23.25;;;14.63;;
41568;SDS011;27283;52.504;13.358;2023-07-29T03:57:37;24.02;;;15.00;;
41568;SDS011;27283;52.504;13.358;2023-07-29T04:00:10;22.52;;;14.25;;
41568;SDS011;27283;52.504;13.358;2023-07-29T04:02:43;23.23;;;13.60;;
41568;SDS011;27283;52.504;13.358;2023-07-29T04:05:15;23.83;;;14.68;;
41568;SDS011;27283;52.504;13.358;2023-07-29T04:07:48;26.15;;;14.35;;
41568;SDS011;27283;52.504;13.358;2023-07-29T04:10:21;21.65;;;13.73;;
41568;SDS011;27283;52.504;13.358;2023-07-29T04:12:56;22.63;;;13.30;;
41568;SDS011;27283;52.504;13.358;2023-07-29T04:15:32;21.35;;;14.27;;
41568;SDS011;27283;52.504;13.358;2023-07-29T04:18:17;22.60;;;13.48;;
41568;SDS011;27283;52.504;13.358;2023-07-29T04:20:49;24.83;;;14.07;;
41568;SDS011;27283;52.504;13.358;2023-07-29T04:23:25;23.02;;;13.93;;
41568;SDS011;27283;52.504;13.358;2023-07-29T04:26:01;20.85;;;13.02;;
41568;SDS011;27283;52.504;13.358;2023-07-29T04:29:01;18.45;;;12.43;;
41568;SDS011;27283;52.504;13.358;2023-07-29T04:31:33;19.30;;;12.05;;
41568;SDS011;27283;52.504;13.358;2023-07-29T04:34:06;17.88;;;12.02;;
41568;SDS011;27283;52.504;13.358;2023-07-29T04:36:38;17.15;;;12.25;;
41568;SDS011;27283;52.504;13.358;2023-07-29T04:39:10;22.05;;;12.40;;
41568;SDS011;27283;52.504;13.358;2023-07-29T04:41:43;17.33;;;10.98;;
41568;SDS011;27283;52.504;13.358;2023-07-29T04:44:18;17.20;;;10.73;;
41568;SDS011;27283;52.504;13.358;2023-07-29T04:46:50;17.38;;;10.80;;
41568;SDS011;27283;52.504;13.358;2023-07-29T04:49:23;18.67;;;13.00;;
41568;SDS011;27283;52.504;13.358;2023-07-29T04:51:55;21.75;;;13.77;;
41568;SDS011;27283;52.504;13.358;2023-07-29T04:54:28;14.80;;;10.60;;
41568;SDS011;27283;52.504;13.358;2023-07-29T04:57:00;17.65;;;10.80;;
41568;SDS011;27283;52.504;13.358;2023-07-29T04:59:35;14.32;;;9.68;;
41568;SDS011;27283;52.504;13.358;2023-07-29T05:02:07;16.17;;;9.32;;
41568;SDS011;27283;52.504;13.358;2023-07-29T05:04:44;11.23;;;8.65;;
41568;SDS011;27283;52.504;13.358;2023-07-29T05:07:19;11.95;;;7.93;;
41568;SDS011;27283;52.504;13.358;2023-07-29T05:09:52;16.60;;;9.35;;
41568;SDS011;27283;52.504;13.358;2023-07-29T05:12:24;14.88;;;9.73;;
41568;SDS011;27283;52.504;13.358;2023-07-29T05:15:07;13.13;;;9.45;;
41568;SDS011;27283;52.504;13.358;2023-07-29T05:17:40;14.68;;;9.70;;
41568;SDS011;27283;52.504;13.358;2023-07-29T05:20:16;16.17;;;10.18;;
41568;SDS011;27283;52.504;13.358;2023-07-29T05:22:48;14.48;;;9.48;;
41568;SDS011;27283;52.504;13.358;2023-07-29T05:25:22;13.13;;;9.90;;
41568;SDS011;27283;52.504;13.358;2023-07-29T05:27:54;14.05;;;9.32;;
41568;SDS011;27283;52.504;13.358;2023-07-29T05:30:36;12.43;;;8.52;;
41568;SDS011;27283;52.504;13.358;2023-07-29T05:33:15;12.38;;;8.82;;
41568;SDS011;27283;52.504;13.358;2023-07-29T05:35:51;11.48;;;8.15;;
41568;SDS011;27283;52.504;13.358;2023-07-29T05:38:23;11.20;;;7.90;;
41568;SDS011;27283;52.504;13.358;2023-07-29T05:40:56;13.13;;;8.50;;
41568;SDS011;27283;52.504;13.358;2023-07-29T05:43:29;11.52;;;8.02;;
41568;SDS011;27283;52.504;13.358;2023-07-29T05:46:04;14.43;;;9.20;;
41568;SDS011;27283;52.504;13.358;2023-07-29T05:48:37;10.95;;;7.88;;
41568;SDS011;27283;52.504;13.358;2023-07-29T05:51:09;10.07;;;7.10;;
41568;SDS011;27283;52.504;13.358;2023-07-29T05:53:41;8.93;;;6.35;;
41568;SDS011;27283;52.504;13.358;2023-07-29T05:56:14;9.07;;;5.70;;
41568;SDS011;27283;52.504;13.358;2023-07-29T05:58:46;7.63;;;5.82;;
41568;SDS011;27283;52.504;13.358;2023-07-29T06:01:22;8.45;;;5.72;;
41568;SDS011;27283;52.504;13.358;2023-07-29T06:03:55;10.60;;;5.68;;
41568;SDS011;27283;52.504;13.358;2023-07-29T06:06:27;7.60;;;5.30;;
41568;SDS011;27283;52.504;13.358;2023-07-29T06:09:02;6.65;;;5.22;;
41568;SDS011;27283;52.504;13.358;2023-07-29T06:11:36;6.10;;;4.97;;
41568;SDS011;27283;52.504;13.358;2023-07-29T06:14:09;6.22;;;5.40;;
41568;SDS011;27283;52.504;13.358;2023-07-29T06:16:44;8.07;;;5.22;;
41568;SDS011;27283;52.504;13.358;2023-07-29T06:19:17;9.77;;;5.07;;
41568;SDS011;27283;52.504;13.358;2023-07-29T06:21:52;8.43;;;5.07;;
41568;SDS011;27283;52.504;13.358;2023-07-29T06:24:27;8.05;;;5.30;;
41568;SDS011;27283;52.504;13.358;2023-07-29T06:26:59;7.95;;;5.55;;
41568;SDS011;27283;52.504;13.358;2023-07-29T06:29:32;6.50;;;4.20;;
41568;SDS011;27283;52.504;13.358;2023-07-29T06:32:09;7.50;;;4.80;;
41568;SDS011;27283;52.504;13.358;2023-07-29T06:34:56;6.45;;;4.60;;
41568;SDS011;27283;52.504;13.358;2023-07-29T06:37:29;8.07;;;5.00;;
41568;SDS011;27283;52.504;13.358;2023-07-29T06:40:05;6.30;;;4.78;;
41568;SDS011;27283;52.504;13.358;2023-07-29T06:42:38;6.95;;;4.57;;
41568;SDS011;27283;52.504;13.358;2023-07-29T06:45:11;6.45;;;4.55;;
41568;SDS011;27283;52.504;13.358;2023-07-29T06:47:50;7.18;;;4.90;;
41568;SDS011;27283;52.504;13.358;2023-07-29T06:50:22;7.28;;;4.57;;
41568;SDS011;27283;52.504;13.358;2023-07-29T06:53:13;7.13;;;4.82;;
41568;SDS011;27283;52.504;13.358;2023-07-29T06:55:46;6.38;;;4.35;;
41568;SDS011;27283;52.504;13.358;2023-07-29T06:58:18;5.63;;;4.63;;
41568;SDS011;27283;52.504;13.358;2023-07-29T07:00:51;7.72;;;4.68;;
41568;SDS011;27283;52.504;13.358;2023-07-29T07:03:28;6.75;;;4.90;;
41568;SDS011;27283;52.504;13.358;2023-07-29T07:06:00;7.78;;;5.28;;
41568;SDS011;27283;52.504;13.358;2023-07-29T07:08:34;5.53;;;4.57;;
41568;SDS011;27283;52.504;13.358;2023-07-29T07:11:07;8.07;;;5.05;;
41568;SDS011;27283;52.504;13.358;2023-07-29T07:13:39;7.50;;;5.28;;
41568;SDS011;27283;52.504;13.358;2023-07-29T07:16:11;7.00;;;4.75;;
41568;SDS011;27283;52.504;13.358;2023-07-29T07:18:47;7.85;;;5.65;;
41568;SDS011;27283;52.504;13.358;2023-07-29T07:21:19;6.72;;;5.65;;
41568;SDS011;27283;52.504;13.358;2023-07-29T07:23:54;6.70;;;5.05;;
41568;SDS011;27283;52.504;13.358;2023-07-29T07:26:26;7.15;;;5.03;;
41568;SDS011;27283;52.504;13.358;2023-07-29T07:28:59;7.30;;;5.35;;
41568;SDS011;27283;52.504;13.358;2023-07-29T07:31:32;8.20;;;4.90;;
41568;SDS011;27283;52.504;13.358;2023-07-29T07:34:09;8.27;;;4.97;;
41568;SDS011;27283;52.504;13.358;2023-07-29T07:36:41;7.93;;;6.22;;
41568;SDS011;27283;52.504;13.358;2023-07-29T07:39:13;45.60;;;28.75;;
41568;SDS011;27283;52.504;13.358;2023-07-29T07:41:45;10.98;;;7.72;;
41568;SDS011;27283;52.504;13.358;2023-07-29T07:44:18;8.65;;;6.05;;
41568;SDS011;27283;52.504;13.358;2023-07-29T07:46:50;8.70;;;6.25;;
41568;SDS011;27283;52.504;13.358;2023-07-29T07:49:25;10.05;;;5.90;;
41568;SDS011;27283;52.504;13.358;2023-07-29T07:51:56;7.68;;;5.47;;
41568;SDS011;27283;52.504;13.358;2023-07-29T07:54:31;6.82;;;4.78;;
41568;SDS011;27283;52.504;13.358;2023-07-29T07:57:04;8.20;;;4.85;;
41568;SDS011;27283;52.504;13.358;2023-07-29T07:59:37;8.20;;;4.85;;
41568;SDS011;27283;52.504;13.358;2023-07-29T08:02:11;5.93;;;4.43;;
41568;SDS011;27283;52.504;13.358;2023-07-29T08:04:46;6.00;;;4.10;;
41568;SDS011;27283;52.504;13.358;2023-07-29T08:07:18;5.63;;;4.53;;
41568;SDS011;27283;52.504;13.358;2023-07-29T08:09:50;5.40;;;4.22;;
41568;SDS011;27283;52.504;13.358;2023-07-29T08:12:22;5.45;;;3.95;;
41568;SDS011;27283;52.504;13.358;2023-07-29T08:14:54;4.53;;;3.92;;
41568;SDS011;27283;52.504;13.358;2023-07-29T08:17:26;10.57;;;4.55;;
41568;SDS011;27283;52.504;13.358;2023-07-29T08:20:01;5.72;;;4.07;;
41568;SDS011;27283;52.504;13.358;2023-07-29T08:22:34;6.07;;;4.22;;
41568;SDS011;27283;52.504;13.358;2023-07-29T08:25:07;5.57;;;4.40;;
41568;SDS011;27283;52.504;13.358;2023-07-29T08:27:39;5.72;;;3.78;;
41568;SDS011;27283;52.504;13.358;2023-07-29T08:30:28;4.88;;;3.92;;
41568;SDS011;27283;52.504;13.358;2023-07-29T08:33:08;8.75;;;4.20;;
41568;SDS011;27283;52.504;13.358;2023-07-29T08:35:44;5.28;;;4.00;;
41568;SDS011;27283;52.504;13.358;2023-07-29T08:38:19;5.25;;;3.85;;
41568;SDS011;27283;52.504;13.358;2023-07-29T08:40:58;4.97;;;4.13;;
41568;SDS011;27283;52.504;13.358;2023-07-29T08:43:36;5.70;;;4.22;;
41568;SDS011;27283;52.504;13.358;2023-07-29T08:46:11;5.03;;;4.20;;
41568;SDS011;27283;52.504;13.358;2023-07-29T08:48:44;9.18;;;4.38;;
41568;SDS011;27283;52.504;13.358;2023-07-29T08:51:23;7.82;;;5.00;;
41568;SDS011;27283;52.504;13.358;2023-07-29T08:53:56;6.35;;;4.25;;
41568;SDS011;27283;52.504;13.358;2023-07-29T08:56:29;4.65;;;3.65;;
41568;SDS011;27283;52.504;13.358;2023-07-29T08:59:02;5.45;;;4.53;;
41568;SDS011;27283;52.504;13.358;2023-07-29T09:01:37;3.97;;;3.58;;
41568;SDS011;27283;52.504;13.358;2023-07-29T09:04:11;5.75;;;3.67;;
41568;SDS011;27283;52.504;13.358;2023-07-29T09:06:47;4.90;;;3.78;;
41568;SDS011;27283;52.504;13.358;2023-07-29T09:09:21;8.63;;;6.80;;
41568;SDS011;27283;52.504;13.358;2023-07-29T09:11:53;11.05;;;4.90;;
41568;SDS011;27283;52.504;13.358;2023-07-29T09:14:25;5.22;;;3.70;;
41568;SDS011;27283;52.504;13.358;2023-07-29T09:16:59;4.63;;;3.60;;
41568;SDS011;27283;52.504;13.358;2023-07-29T09:19:32;6.38;;;3.70;;
41568;SDS011;27283;52.504;13.358;2023-07-29T09:34:54;3.92;;;3.50;;
41568;SDS011;27283;52.504;13.358;2023-07-29T09:37:33;4.95;;;3.40;;
41568;SDS011;27283;52.504;13.358;2023-07-29T09:40:06;3.88;;;3.15;;
41568;SDS011;27283;52.504;13.358;2023-07-29T09:42:48;3.80;;;2.92;;
41568;SDS011;27283;52.504;13.358;2023-07-29T09:45:22;4.05;;;3.65;;
41568;SDS011;27283;52.504;13.358;2023-07-29T09:47:57;4.95;;;3.47;;
41568;SDS011;27283;52.504;13.358;2023-07-29T09:53:25;4.40;;;3.65;;
41568;SDS011;27283;52.504;13.358;2023-07-29T09:55:59;3.92;;;3.20;;
41568;SDS011;27283;52.504;13.358;2023-07-29T09:58:34;4.20;;;2.97;;
41568;SDS011;27283;52.504;13.358;2023-07-29T10:01:10;4.07;;;3.00;;
41568;SDS011;27283;52.504;13.358;2023-07-29T10:03:45;5.75;;;3.15;;
41568;SDS011;27283;52.504;13.358;2023-07-29T10:06:21;3.53;;;2.80;;
41568;SDS011;27283;52.504;13.358;2023-07-29T10:08:55;3.20;;;2.47;;
41568;SDS011;27283;52.504;13.358;2023-07-29T10:11:28;4.35;;;2.60;;
41568;SDS011;27283;52.504;13.358;2023-07-29T10:14:01;3.42;;;2.50;;
41568;SDS011;27283;52.504;13.358;2023-07-29T10:16:36;4.43;;;2.90;;
41568;SDS011;27283;52.504;13.358;2023-07-29T10:19:17;4.88;;;3.00;;
41568;SDS011;27283;52.504;13.358;2023-07-29T10:21:53;3.10;;;2.60;;
41568;SDS011;27283;52.504;13.358;2023-07-29T10:24:29;4.25;;;2.95;;
41568;SDS011;27283;52.504;13.358;2023-07-29T10:27:04;5.68;;;2.60;;
41568;SDS011;27283;52.504;13.358;2023-07-29T10:29:38;4.20;;;2.70;;
41568;SDS011;27283;52.504;13.358;2023-07-29T10:32:16;5.93;;;2.80;;
41568;SDS011;27283;52.504;13.358;2023-07-29T10:34:55;3.58;;;2.53;;
41568;SDS011;27283;52.504;13.358;2023-07-29T10:37:29;5.35;;;2.63;;
41568;SDS011;27283;52.504;13.358;2023-07-29T10:40:03;4.78;;;2.70;;
41568;SDS011;27283;52.504;13.358;2023-07-29T10:42:41;3.65;;;2.80;;
41568;SDS011;27283;52.504;13.358;2023-07-29T10:45:41;3.20;;;2.78;;
41568;SDS011;27283;52.504;13.358;2023-07-29T10:48:38;3.05;;;2.58;;
41568;SDS011;27283;52.504;13.358;2023-07-29T10:54:12;3.03;;;2.55;;
41568;SDS011;27283;52.504;13.358;2023-07-29T10:56:48;4.78;;;2.72;;
41568;SDS011;27283;52.504;13.358;2023-07-29T10:59:31;3.40;;;2.33;;
41568;SDS011;27283;52.504;13.358;2023-07-29T11:02:11;3.25;;;2.28;;
41568;SDS011;27283;52.504;13.358;2023-07-29T11:04:49;2.80;;;2.47;;
41568;SDS011;27283;52.504;13.358;2023-07-29T11:07:24;5.35;;;2.40;;
41568;SDS011;27283;52.504;13.358;2023-07-29T11:10:00;4.28;;;2.40;;
41568;SDS011;27283;52.504;13.358;2023-07-29T11:12:38;3.53;;;2.45;;
41568;SDS011;27283;52.504;13.358;2023-07-29T11:15:16;8.20;;;2.08;;
41568;SDS011;27283;52.504;13.358;2023-07-29T11:17:51;5.65;;;2.00;;
41568;SDS011;27283;52.504;13.358;2023-07-29T11:20:25;7.22;;;2.13;;
41568;SDS011;27283;52.504;13.358;2023-07-29T11:23:06;5.68;;;2.05;;
41568;SDS011;27283;52.504;13.358;2023-07-29T11:25:41;10.63;;;3.42;;
41568;SDS011;27283;52.504;13.358;2023-07-29T11:28:16;8.75;;;2.70;;
41568;SDS011;27283;52.504;13.358;2023-07-29T11:30:51;10.65;;;2.88;;
41568;SDS011;27283;52.504;13.358;2023-07-29T11:33:24;7.63;;;3.13;;
41568;SDS011;27283;52.504;13.358;2023-07-29T11:35:57;3.95;;;1.92;;
41568;SDS011;27283;52.504;13.358;2023-07-29T11:38:29;3.40;;;1.73;;
41568;SDS011;27283;52.504;13.358;2023-07-29T11:41:07;2.97;;;2.15;;
41568;SDS011;27283;52.504;13.358;2023-07-29T11:43:40;4.78;;;2.00;;
41568;SDS011;27283;52.504;13.358;2023-07-29T11:46:12;3.78;;;2.30;;
41568;SDS011;27283;52.504;13.358;2023-07-29T11:48:44;6.53;;;2.08;;
41568;SDS011;27283;52.504;13.358;2023-07-29T11:51:16;4.15;;;1.80;;
41568;SDS011;27283;52.504;13.358;2023-07-29T11:53:49;4.40;;;2.03;;
41568;SDS011;27283;52.504;13.358;2023-07-29T11:56:27;2.75;;;1.65;;
41568;SDS011;27283;52.504;13.358;2023-07-29T11:59:01;4.30;;;1.73;;
41568;SDS011;27283;52.504;13.358;2023-07-29T12:01:35;4.03;;;1.70;;
41568;SDS011;27283;52.504;13.358;2023-07-29T12:04:08;4.88;;;1.50;;
41568;SDS011;27283;52.504;13.358;2023-07-29T12:06:41;4.32;;;1.83;;
41568;SDS011;27283;52.504;13.358;2023-07-29T12:09:13;2.40;;;1.15;;
41568;SDS011;27283;52.504;13.358;2023-07-29T12:11:51;3.03;;;1.25;;
41568;SDS011;27283;52.504;13.358;2023-07-29T12:14:25;2.85;;;1.30;;
41568;SDS011;27283;52.504;13.358;2023-07-29T12:16:59;2.67;;;1.52;;
41568;SDS011;27283;52.504;13.358;2023-07-29T12:19:33;2.65;;;1.45;;
41568;SDS011;27283;52.504;13.358;2023-07-29T12:22:07;2.72;;;1.50;;
41568;SDS011;27283;52.504;13.358;2023-07-29T12:24:41;4.82;;;1.55;;
41568;SDS011;27283;52.504;13.358;2023-07-29T12:27:16;3.63;;;1.60;;
41568;SDS011;27283;52.504;13.358;2023-07-29T12:29:51;4.15;;;1.67;;
41568;SDS011;27283;52.504;13.358;2023-07-29T12:32:26;4.38;;;2.20;;
41568;SDS011;27283;52.504;13.358;2023-07-29T12:34:58;3.35;;;1.83;;
41568;SDS011;27283;52.504;13.358;2023-07-29T12:37:33;3.53;;;2.15;;
41568;SDS011;27283;52.504;13.358;2023-07-29T12:40:08;8.48;;;2.90;;
41568;SDS011;27283;52.504;13.358;2023-07-29T12:42:56;5.15;;;3.22;;
41568;SDS011;27283;52.504;13.358;2023-07-29T12:45:35;4.90;;;3.13;;
41568;SDS011;27283;52.504;13.358;2023-07-29T12:48:11;4.80;;;2.63;;
41568;SDS011;27283;52.504;13.358;2023-07-29T12:50:46;4.97;;;3.00;;
41568;SDS011;27283;52.504;13.358;2023-07-29T12:53:20;4.75;;;2.67;;
41568;SDS011;27283;52.504;13.358;2023-07-29T12:55:55;5.10;;;3.08;;
41568;SDS011;27283;52.504;13.358;2023-07-29T12:58:32;5.10;;;2.78;;
41568;SDS011;27283;52.504;13.358;2023-07-29T13:01:07;4.82;;;3.10;;
41568;SDS011;27283;52.504;13.358;2023-07-29T13:04:05;5.28;;;3.40;;
41568;SDS011;27283;52.504;13.358;2023-07-29T13:06:38;6.93;;;3.50;;
41568;SDS011;27283;52.504;13.358;2023-07-29T13:09:13;7.85;;;3.63;;
41568;SDS011;27283;52.504;13.358;2023-07-29T13:11:46;5.85;;;3.33;;
41568;SDS011;27283;52.504;13.358;2023-07-29T13:14:20;6.15;;;4.00;;
41568;SDS011;27283;52.504;13.358;2023-07-29T13:16:55;6.72;;;4.28;;
41568;SDS011;27283;52.504;13.358;2023-07-29T13:19:27;6.18;;;4.00;;
41568;SDS011;27283;52.504;13.358;2023-07-29T13:22:02;5.00;;;3.80;;
41568;SDS011;27283;52.504;13.358;2023-07-29T13:24:37;4.18;;;3.35;;
41568;SDS011;27283;52.504;13.358;2023-07-29T13:27:09;6.35;;;3.55;;
41568;SDS011;27283;52.504;13.358;2023-07-29T13:29:44;4.90;;;3.20;;
41568;SDS011;27283;52.504;13.358;2023-07-29T13:32:17;5.55;;;3.80;;
41568;SDS011;27283;52.504;13.358;2023-07-29T13:34:50;4.43;;;3.05;;
41568;SDS011;27283;52.504;13.358;2023-07-29T13:37:24;8.55;;;4.20;;
41568;SDS011;27283;52.504;13.358;2023-07-29T13:39:59;4.70;;;2.60;;
41568;SDS011;27283;52.504;13.358;2023-07-29T13:42:32;9.93;;;3.00;;
41568;SDS011;27283;52.504;13.358;2023-07-29T13:45:08;4.13;;;2.40;;
41568;SDS011;27283;52.504;13.358;2023-07-29T13:47:41;2.83;;;2.30;;
41568;SDS011;27283;52.504;13.358;2023-07-29T13:50:17;3.22;;;2.10;;
41568;SDS011;27283;52.504;13.358;2023-07-29T13:52:49;2.83;;;2.30;;
41568;SDS011;27283;52.504;13.358;2023-07-29T13:55:24;4.15;;;2.65;;
41568;SDS011;27283;52.504;13.358;2023-07-29T13:57:59;4.03;;;2.50;;
41568;SDS011;27283;52.504;13.358;2023-07-29T14:00:38;3.67;;;2.42;;
41568;SDS011;27283;52.504;13.358;2023-07-29T14:03:15;2.63;;;1.92;;
41568;SDS011;27283;52.504;13.358;2023-07-29T14:05:47;4.28;;;2.15;;
41568;SDS011;27283;52.504;13.358;2023-07-29T14:08:22;2.42;;;1.90;;
41568;SDS011;27283;52.504;13.358;2023-07-29T14:10:55;6.53;;;2.10;;
41568;SDS011;27283;52.504;13.358;2023-07-29T14:13:30;3.28;;;2.10;;
41568;SDS011;27283;52.504;13.358;2023-07-29T14:16:06;3.45;;;2.20;;
41568;SDS011;27283;52.504;13.358;2023-07-29T14:18:40;4.72;;;2.05;;
41568;SDS011;27283;52.504;13.358;2023-07-29T14:21:15;8.80;;;4.85;;
41568;SDS011;27283;52.504;13.358;2023-07-29T14:23:49;2.80;;;2.00;;
41568;SDS011;27283;52.504;13.358;2023-07-29T14:26:22;2.67;;;1.77;;
41568;SDS011;27283;52.504;13.358;2023-07-29T14:28:55;5.88;;;2.15;;
41568;SDS011;27283;52.504;13.358;2023-07-29T14:31:30;3.85;;;2.03;;
41568;SDS011;27283;52.504;13.358;2023-07-29T14:34:05;3.05;;;2.60;;
41568;SDS011;27283;52.504;13.358;2023-07-29T14:36:47;3.28;;;2.28;;
41568;SDS011;27283;52.504;13.358;2023-07-29T14:39:21;3.63;;;2.53;;
41568;SDS011;27283;52.504;13.358;2023-07-29T14:41:53;2.45;;;2.00;;
41568;SDS011;27283;52.504;13.358;2023-07-29T14:44:26;2.90;;;2.15;;
41568;SDS011;27283;52.504;13.358;2023-07-29T14:47:01;3.47;;;2.03;;
41568;SDS011;27283;52.504;13.358;2023-07-29T14:49:35;3.20;;;1.88;;
41568;SDS011;27283;52.504;13.358;2023-07-29T14:52:10;2.65;;;1.85;;
41568;SDS011;27283;52.504;13.358;2023-07-29T14:54:43;2.80;;;2.00;;
41568;SDS011;27283;52.504;13.358;2023-07-29T14:57:17;2.40;;;1.90;;
41568;SDS011;27283;52.504;13.358;2023-07-29T14:59:51;3.45;;;1.80;;
41568;SDS011;27283;52.504;13.358;2023-07-29T15:02:25;2.40;;;1.90;;
41568;SDS011;27283;52.504;13.358;2023-07-29T15:04:58;2.22;;;1.63;;
41568;SDS011;27283;52.504;13.358;2023-07-29T15:07:30;2.00;;;1.50;;
41568;SDS011;27283;52.504;13.358;2023-07-29T15:10:03;2.85;;;1.90;;
41568;SDS011;27283;52.504;13.358;2023-07-29T15:12:36;2.95;;;1.85;;
41568;SDS011;27283;52.504;13.358;2023-07-29T15:15:08;2.65;;;2.00;;
41568;SDS011;27283;52.504;13.358;2023-07-29T15:17:43;4.63;;;2.20;;
41568;SDS011;27283;52.504;13.358;2023-07-29T15:20:16;3.08;;;1.92;;
41568;SDS011;27283;52.504;13.358;2023-07-29T15:22:48;3.78;;;2.50;;
41568;SDS011;27283;52.504;13.358;2023-07-29T15:25:21;2.72;;;2.30;;
41568;SDS011;27283;52.504;13.358;2023-07-29T15:27:53;2.38;;;1.80;;